Time;durP1;ratioP1;P1;durP2;ratioP2;P2;SDS_P1;SDS_P2;PMS_P1;PMS_P2;Temp;Humidity;BMP_temperature;BMP_pressure;BME280_temperature;BME280_humidity;BME280_pressure;Samples;Min_cycle;Max_cycle;Signal;HPM_P1;HPM_P2
2023/10/26 00:00:34;;;;;;;23.30;13.45;;;;;;;;;;6223292;22;20082;-86
2023/10/26 00:03:00;;;;;;;22.23;12.35;;;;;;;;;;6248846;22;20413;-86
2023/10/26 00:05:26;;;;;;;24.67;14.52;;;;;;;;;;6250092;22;20020;-86
2023/10/26 00:07:52;;;;;;;34.33;16.65;;;;;;;;;;6276480;22;20340;-86
2023/10/26 00:10:18;;;;;;;30.17;16.15;;;;;;;;;;6276305;22;20024;-86
2023/10/26 00:12:45;;;;;;;37.17;17.40;;;;;;;;;;6223997;22;20019;-86
2023/10/26 00:15:11;;;;;;;27.63;16.75;;;;;;;;;;6222768;22;20016;-86
2023/10/26 00:17:37;;;;;;;33.28;18.42;;;;;;;;;;6222971;22;20026;-86
2023/10/26 00:20:04;;;;;;;40.90;21.05;;;;;;;;;;6249346;22;20020;-85
2023/10/26 00:22:31;;;;;;;31.63;18.15;;;;;;;;;;6276574;22;20015;-86
2023/10/26 00:24:57;;;;;;;36.08;19.23;;;;;;;;;;6248792;22;20015;-86
2023/10/26 00:27:23;;;;;;;38.33;19.10;;;;;;;;;;6224334;22;20020;-86
2023/10/26 00:29:49;;;;;;;37.20;20.35;;;;;;;;;;6222432;22;20109;-86
2023/10/26 00:32:15;;;;;;;33.22;19.38;;;;;;;;;;6223477;22;20027;-86
2023/10/26 00:34:41;;;;;;;42.05;23.02;;;;;;;;;;6276706;22;20008;-86
2023/10/26 00:37:07;;;;;;;37.47;20.88;;;;;;;;;;6247868;22;20020;-86
2023/10/26 00:39:33;;;;;;;32.33;17.63;;;;;;;;;;6223423;22;20098;-86
2023/10/26 00:41:59;;;;;;;38.00;19.92;;;;;;;;;;6223723;22;20015;-86
2023/10/26 00:44:25;;;;;;;40.63;21.60;;;;;;;;;;6225202;22;20103;-85
2023/10/26 00:46:52;;;;;;;29.23;16.67;;;;;;;;;;6225099;22;20016;-86
2023/10/26 00:49:19;;;;;;;32.63;19.23;;;;;;;;;;6225015;22;20020;-86
2023/10/26 00:51:45;;;;;;;37.83;22.08;;;;;;;;;;6276941;22;20034;-86
2023/10/26 00:54:11;;;;;;;39.53;20.23;;;;;;;;;;6224878;22;20019;-86
2023/10/26 00:56:38;;;;;;;40.85;20.20;;;;;;;;;;6223969;22;20031;-86
2023/10/26 00:59:04;;;;;;;32.03;19.10;;;;;;;;;;6251314;22;20016;-86
2023/10/26 01:01:30;;;;;;;33.22;19.27;;;;;;;;;;6251271;22;20349;-85
2023/10/26 01:03:57;;;;;;;31.40;17.88;;;;;;;;;;6277637;22;20023;-86
2023/10/26 01:06:23;;;;;;;51.63;22.05;;;;;;;;;;6251881;22;20011;-86
2023/10/26 01:08:49;;;;;;;40.33;23.35;;;;;;;;;;6249372;22;20077;-86
2023/10/26 01:11:16;;;;;;;53.85;25.05;;;;;;;;;;6223810;22;20023;-86
2023/10/26 01:13:42;;;;;;;33.83;19.73;;;;;;;;;;6247767;22;20012;-86
2023/10/26 01:16:08;;;;;;;31.55;19.55;;;;;;;;;;6249126;22;20027;-86
2023/10/26 01:18:34;;;;;;;45.00;22.60;;;;;;;;;;6275714;22;20015;-86
2023/10/26 01:21:00;;;;;;;65.07;25.23;;;;;;;;;;6276092;22;20023;-86
2023/10/26 01:23:26;;;;;;;38.22;21.05;;;;;;;;;;6223734;22;20022;-86
2023/10/26 01:25:53;;;;;;;41.53;22.02;;;;;;;;;;6223901;22;20107;-86
2023/10/26 01:28:19;;;;;;;27.55;18.15;;;;;;;;;;6248337;22;20443;-86
2023/10/26 01:30:45;;;;;;;48.17;22.90;;;;;;;;;;6276362;22;20448;-86
2023/10/26 01:33:11;;;;;;;34.13;20.23;;;;;;;;;;6248510;22;20027;-86
2023/10/26 01:35:44;;;;;;;33.97;20.48;;;;;;;;;;6275799;22;20016;-86
2023/10/26 01:38:10;;;;;;;32.35;19.83;;;;;;;;;;6248208;22;20371;-86
2023/10/26 01:40:36;;;;;;;35.58;21.30;;;;;;;;;;6223544;22;20466;-86
2023/10/26 01:43:02;;;;;;;45.03;23.38;;;;;;;;;;6222888;22;20015;-86
2023/10/26 01:45:28;;;;;;;30.80;18.75;;;;;;;;;;6222969;22;20047;-86
2023/10/26 01:47:55;;;;;;;35.45;21.10;;;;;;;;;;6249090;22;20015;-86
2023/10/26 01:50:21;;;;;;;32.17;20.08;;;;;;;;;;6224440;22;20024;-86
2023/10/26 01:52:47;;;;;;;33.67;19.65;;;;;;;;;;6248534;22;20106;-86
2023/10/26 01:55:13;;;;;;;35.30;20.92;;;;;;;;;;6223265;22;20459;-86
2023/10/26 01:57:39;;;;;;;34.38;19.42;;;;;;;;;;6222865;22;20119;-86
2023/10/26 02:00:05;;;;;;;114.28;28.88;;;;;;;;;;6248108;22;20436;-86
2023/10/26 02:02:32;;;;;;;37.20;21.17;;;;;;;;;;6275842;22;20065;-86
2023/10/26 02:04:58;;;;;;;78.68;24.33;;;;;;;;;;6247987;22;20012;-86
2023/10/26 02:07:24;;;;;;;223.32;30.90;;;;;;;;;;6223032;22;20012;-86
2023/10/26 02:09:50;;;;;;;57.80;21.85;;;;;;;;;;6223070;22;20047;-86
2023/10/26 02:12:16;;;;;;;72.15;22.02;;;;;;;;;;6223530;22;20026;-86
2023/10/26 02:14:42;;;;;;;167.38;27.40;;;;;;;;;;6247869;22;20344;-86
2023/10/26 02:17:08;;;;;;;34.85;20.42;;;;;;;;;;6222980;22;20109;-86
2023/10/26 02:19:34;;;;;;;40.30;21.98;;;;;;;;;;6273622;22;20026;-86
2023/10/26 02:22:00;;;;;;;37.78;21.20;;;;;;;;;;6249290;22;20024;-86
2023/10/26 02:24:27;;;;;;;44.13;22.80;;;;;;;;;;6223590;22;20045;-86
2023/10/26 02:26:53;;;;;;;34.25;20.58;;;;;;;;;;6222358;22;20020;-86
2023/10/26 02:29:19;;;;;;;36.92;20.27;;;;;;;;;;6248284;22;20051;-86
2023/10/26 02:31:45;;;;;;;32.20;20.30;;;;;;;;;;6223505;22;20012;-86
2023/10/26 02:34:11;;;;;;;32.10;18.67;;;;;;;;;;6248799;22;20022;-86
2023/10/26 02:36:37;;;;;;;29.55;18.33;;;;;;;;;;6248158;22;20066;-86
2023/10/26 02:39:03;;;;;;;99.10;21.60;;;;;;;;;;6248937;22;20020;-86
2023/10/26 02:41:29;;;;;;;32.95;18.23;;;;;;;;;;6224430;22;20051;-86
2023/10/26 02:43:55;;;;;;;29.15;16.40;;;;;;;;;;6250778;22;20020;-86
2023/10/26 02:46:23;;;;;;;35.13;17.77;;;;;;;;;;6250472;22;20100;-86
2023/10/26 02:48:49;;;;;;;71.93;19.98;;;;;;;;;;6248931;22;20012;-86
2023/10/26 02:51:15;;;;;;;48.90;19.40;;;;;;;;;;6248745;22;20027;-86
2023/10/26 02:53:42;;;;;;;287.35;30.67;;;;;;;;;;6222497;22;20015;-86
2023/10/26 02:56:08;;;;;;;184.02;21.17;;;;;;;;;;6247284;22;20055;-86
2023/10/26 02:58:34;;;;;;;305.58;25.65;;;;;;;;;;6222852;22;20459;-86
2023/10/26 03:01:00;;;;;;;225.02;22.48;;;;;;;;;;6222806;22;20420;-86
2023/10/26 03:03:27;;;;;;;189.35;21.98;;;;;;;;;;6274787;22;20039;-86
2023/10/26 03:05:53;;;;;;;187.95;22.08;;;;;;;;;;6247315;22;20095;-86
2023/10/26 03:08:20;;;;;;;77.65;16.15;;;;;;;;;;6247509;22;20490;-86
2023/10/26 03:10:46;;;;;;;62.10;14.23;;;;;;;;;;6246771;22;20019;-86
2023/10/26 03:13:12;;;;;;;128.43;13.93;;;;;;;;;;6248590;22;20336;-86
2023/10/26 03:15:38;;;;;;;126.55;14.80;;;;;;;;;;6248591;22;20058;-86
2023/10/26 03:18:04;;;;;;;112.75;13.20;;;;;;;;;;6222398;22;20062;-86
2023/10/26 03:20:32;;;;;;;78.00;11.80;;;;;;;;;;6275027;22;20012;-86
2023/10/26 03:22:58;;;;;;;113.10;13.70;;;;;;;;;;6221856;22;20456;-86
2023/10/26 03:25:24;;;;;;;122.00;15.02;;;;;;;;;;6223254;22;20062;-86
2023/10/26 03:27:50;;;;;;;87.65;13.68;;;;;;;;;;6248206;22;20024;-86
2023/10/26 03:30:17;;;;;;;312.35;22.98;;;;;;;;;;6222923;22;20023;-86
2023/10/26 03:32:44;;;;;;;123.78;14.43;;;;;;;;;;6248199;22;20463;-86
2023/10/26 03:35:10;;;;;;;73.93;11.55;;;;;;;;;;6223245;22;20016;-86
2023/10/26 03:37:36;;;;;;;82.72;12.77;;;;;;;;;;6275231;22;20020;-86
2023/10/26 03:40:03;;;;;;;50.25;11.48;;;;;;;;;;6249973;22;20016;-86
2023/10/26 03:42:29;;;;;;;108.38;14.35;;;;;;;;;;6249562;22;20012;-86
2023/10/26 03:44:55;;;;;;;71.53;12.85;;;;;;;;;;6249623;22;20020;-86
2023/10/26 03:47:22;;;;;;;93.68;13.57;;;;;;;;;;6249785;22;20047;-86
2023/10/26 03:49:51;;;;;;;46.63;11.60;;;;;;;;;;6224771;22;20020;-86
2023/10/26 03:52:18;;;;;;;112.55;14.27;;;;;;;;;;6225365;22;20019;-86
2023/10/26 03:54:45;;;;;;;67.25;12.00;;;;;;;;;;6197821;23;20023;-86
2023/10/26 03:57:11;;;;;;;162.88;15.35;;;;;;;;;;6221021;23;20024;-86
2023/10/26 03:59:37;;;;;;;108.05;13.63;;;;;;;;;;6220131;23;20016;-86
2023/10/26 04:02:03;;;;;;;80.45;11.80;;;;;;;;;;6194465;23;20012;-87
2023/10/26 04:04:29;;;;;;;96.40;13.52;;;;;;;;;;6219909;23;20044;-86
2023/10/26 04:06:55;;;;;;;72.18;12.88;;;;;;;;;;6193850;23;20024;-86
2023/10/26 04:09:21;;;;;;;71.05;12.40;;;;;;;;;;6194934;23;20013;-86
2023/10/26 04:11:47;;;;;;;86.43;12.65;;;;;;;;;;6194686;23;20410;-87
2023/10/26 04:14:13;;;;;;;74.25;11.55;;;;;;;;;;6193814;23;20091;-86
2023/10/26 04:16:40;;;;;;;138.20;14.90;;;;;;;;;;6192851;23;20460;-86
2023/10/26 04:19:06;;;;;;;80.63;12.52;;;;;;;;;;6194846;23;20380;-86
2023/10/26 04:21:33;;;;;;;100.10;12.35;;;;;;;;;;6219174;23;20445;-86
2023/10/26 04:23:59;;;;;;;132.45;14.75;;;;;;;;;;6218778;23;20016;-86
2023/10/26 04:26:29;;;;;;;77.03;11.80;;;;;;;;;;6196214;23;20023;-86
2023/10/26 04:28:55;;;;;;;67.43;10.98;;;;;;;;;;6196637;23;20016;-86
2023/10/26 04:31:21;;;;;;;66.75;11.90;;;;;;;;;;6195826;23;20107;-86
2023/10/26 04:33:48;;;;;;;80.50;12.32;;;;;;;;;;6197690;23;20016;-86
2023/10/26 04:36:14;;;;;;;57.90;12.23;;;;;;;;;;6194554;23;20020;-86
2023/10/26 04:38:40;;;;;;;81.53;11.90;;;;;;;;;;6219671;23;20035;-86
2023/10/26 04:41:06;;;;;;;66.03;11.50;;;;;;;;;;6193102;23;20054;-86
2023/10/26 04:43:32;;;;;;;33.45;10.18;;;;;;;;;;6193542;23;20013;-86
2023/10/26 04:45:58;;;;;;;83.80;12.45;;;;;;;;;;6193598;23;20479;-86
2023/10/26 04:48:24;;;;;;;46.67;10.82;;;;;;;;;;6246536;23;20022;-86
2023/10/26 04:50:51;;;;;;;29.30;10.32;;;;;;;;;;6218718;23;20028;-86
2023/10/26 04:53:17;;;;;;;37.53;11.48;;;;;;;;;;6218633;23;20087;-86
2023/10/26 04:55:43;;;;;;;45.38;11.10;;;;;;;;;;6218138;23;20059;-86
2023/10/26 04:58:09;;;;;;;91.72;14.93;;;;;;;;;;6219031;23;20488;-86
2023/10/26 05:00:35;;;;;;;16.70;9.90;;;;;;;;;;6192895;23;20065;-86
2023/10/26 05:03:02;;;;;;;18.08;11.07;;;;;;;;;;6219172;23;20020;-86
2023/10/26 05:05:28;;;;;;;22.77;11.90;;;;;;;;;;6219516;23;20087;-86
2023/10/26 05:07:54;;;;;;;24.10;14.20;;;;;;;;;;6194016;23;20063;-86
2023/10/26 05:10:20;;;;;;;22.27;13.50;;;;;;;;;;6218327;23;20030;-86
2023/10/26 05:12:46;;;;;;;19.90;12.45;;;;;;;;;;6193821;23;20082;-86
2023/10/26 05:15:12;;;;;;;22.42;13.93;;;;;;;;;;6218807;23;20019;-86
2023/10/26 05:17:38;;;;;;;21.35;13.52;;;;;;;;;;6193403;23;20066;-86
2023/10/26 05:20:05;;;;;;;32.65;15.10;;;;;;;;;;6192953;23;20048;-86
2023/10/26 05:22:34;;;;;;;22.90;14.38;;;;;;;;;;6217975;23;20071;-86
2023/10/26 05:25:04;;;;;;;26.40;15.32;;;;;;;;;;6193651;23;20024;-86
2023/10/26 05:27:31;;;;;;;23.60;13.52;;;;;;;;;;6218711;23;20388;-86
2023/10/26 05:29:57;;;;;;;22.52;14.30;;;;;;;;;;6217823;23;20030;-86
2023/10/26 05:32:23;;;;;;;31.95;15.00;;;;;;;;;;6193384;23;20370;-86
2023/10/26 05:34:49;;;;;;;32.70;15.93;;;;;;;;;;6218775;23;20153;-86
2023/10/26 05:37:15;;;;;;;38.03;18.08;;;;;;;;;;6218825;23;20020;-87
2023/10/26 05:39:41;;;;;;;75.70;19.38;;;;;;;;;;6193934;23;20031;-86
2023/10/26 05:42:07;;;;;;;49.08;16.95;;;;;;;;;;6245667;23;20016;-86
2023/10/26 05:44:33;;;;;;;52.00;16.65;;;;;;;;;;6193708;23;20403;-86
2023/10/26 05:46:59;;;;;;;153.00;18.85;;;;;;;;;;6194352;23;20380;-87
2023/10/26 05:49:26;;;;;;;258.15;24.15;;;;;;;;;;6219045;23;20012;-87
2023/10/26 05:51:52;;;;;;;57.03;13.82;;;;;;;;;;6194193;23;20114;-87
2023/10/26 05:54:18;;;;;;;179.63;21.98;;;;;;;;;;6218772;23;20463;-87
2023/10/26 05:56:44;;;;;;;106.85;20.48;;;;;;;;;;6218794;23;20019;-87
2023/10/26 05:59:10;;;;;;;78.60;19.08;;;;;;;;;;6218898;23;20028;-87
2023/10/26 06:01:36;;;;;;;78.22;18.33;;;;;;;;;;6193772;23;20020;-87
2023/10/26 06:04:02;;;;;;;44.47;17.23;;;;;;;;;;6218945;23;20012;-87
2023/10/26 06:06:29;;;;;;;29.80;15.68;;;;;;;;;;6218853;23;20126;-86
2023/10/26 06:08:55;;;;;;;22.42;13.82;;;;;;;;;;6193799;23;20020;-87
2023/10/26 06:11:21;;;;;;;26.60;15.10;;;;;;;;;;6194481;23;20012;-87
2023/10/26 06:13:47;;;;;;;25.73;15.25;;;;;;;;;;6246466;23;20066;-87
2023/10/26 06:16:15;;;;;;;29.50;17.00;;;;;;;;;;6192676;23;20020;-86
2023/10/26 06:18:42;;;;;;;36.88;18.50;;;;;;;;;;6217530;23;20020;-86
2023/10/26 06:21:08;;;;;;;32.15;17.38;;;;;;;;;;6218290;23;20016;-86
2023/10/26 06:23:34;;;;;;;36.35;19.65;;;;;;;;;;6193375;23;20024;-86
2023/10/26 06:26:01;;;;;;;38.70;19.17;;;;;;;;;;6218394;23;20459;-87
2023/10/26 06:28:28;;;;;;;37.00;18.92;;;;;;;;;;6192714;23;20016;-87
2023/10/26 06:30:54;;;;;;;39.40;19.55;;;;;;;;;;6218275;23;20401;-87
2023/10/26 06:33:21;;;;;;;41.00;19.45;;;;;;;;;;6193495;23;20073;-86
2023/10/26 06:35:47;;;;;;;35.45;18.95;;;;;;;;;;6193712;23;20044;-87
2023/10/26 06:38:14;;;;;;;47.08;20.33;;;;;;;;;;6244738;23;20099;-87
2023/10/26 06:40:40;;;;;;;41.00;21.33;;;;;;;;;;6193369;23;20020;-86
2023/10/26 06:43:06;;;;;;;50.15;21.90;;;;;;;;;;6190987;23;20461;-86
2023/10/26 06:45:32;;;;;;;41.42;20.73;;;;;;;;;;6217772;23;20020;-85
2023/10/26 06:47:58;;;;;;;48.95;22.00;;;;;;;;;;6244812;23;20097;-86
2023/10/26 06:50:24;;;;;;;44.63;22.65;;;;;;;;;;6192579;23;20020;-86
2023/10/26 06:52:50;;;;;;;42.72;22.55;;;;;;;;;;6198472;22;20470;-86
2023/10/26 06:55:19;;;;;;;48.40;22.58;;;;;;;;;;6275656;22;20380;-89
2023/10/26 06:57:46;;;;;;;42.25;20.25;;;;;;;;;;6276052;22;20023;-87
2023/10/26 07:00:12;;;;;;;42.80;21.33;;;;;;;;;;6248666;22;20023;-87
2023/10/26 07:02:38;;;;;;;36.90;19.40;;;;;;;;;;6276629;22;20039;-86
2023/10/26 07:05:04;;;;;;;39.15;20.33;;;;;;;;;;6224256;22;20348;-86
2023/10/26 07:07:34;;;;;;;39.72;20.67;;;;;;;;;;6250949;22;20340;-88
2023/10/26 07:10:00;;;;;;;41.85;20.35;;;;;;;;;;6249373;22;20078;-86
2023/10/26 07:12:26;;;;;;;35.30;18.70;;;;;;;;;;6224731;22;20027;-87
2023/10/26 07:14:54;;;;;;;37.67;20.20;;;;;;;;;;6225414;22;20016;-85
2023/10/26 07:17:23;;;;;;;34.55;18.80;;;;;;;;;;6251449;22;20016;-86
2023/10/26 07:19:51;;;;;;;49.53;22.40;;;;;;;;;;6226159;22;20016;-85
2023/10/26 07:22:17;;;;;;;49.47;23.48;;;;;;;;;;6226790;22;20137;-86
2023/10/26 07:24:43;;;;;;;57.13;25.10;;;;;;;;;;6226401;22;20026;-85
2023/10/26 07:27:09;;;;;;;61.78;26.70;;;;;;;;;;6251120;22;20107;-85
2023/10/26 07:29:35;;;;;;;48.10;24.40;;;;;;;;;;6249993;22;20029;-85
2023/10/26 07:32:01;;;;;;;55.58;26.60;;;;;;;;;;6226022;22;20012;-85
2023/10/26 07:34:27;;;;;;;59.72;27.23;;;;;;;;;;6223329;22;20035;-85
2023/10/26 07:36:53;;;;;;;56.95;26.90;;;;;;;;;;6248748;22;20023;-85
2023/10/26 07:39:20;;;;;;;54.67;26.40;;;;;;;;;;6224171;22;20061;-85
2023/10/26 07:41:47;;;;;;;49.42;24.70;;;;;;;;;;6249954;22;20090;-85
2023/10/26 07:44:13;;;;;;;53.85;26.02;;;;;;;;;;6224056;22;20019;-85
2023/10/26 07:46:39;;;;;;;55.17;25.88;;;;;;;;;;6250370;22;20024;-85
2023/10/26 07:49:05;;;;;;;51.30;25.25;;;;;;;;;;6225463;22;20016;-85
2023/10/26 07:51:31;;;;;;;51.03;26.15;;;;;;;;;;6226195;22;20026;-85
2023/10/26 07:53:57;;;;;;;42.55;23.60;;;;;;;;;;6227139;22;20538;-85
2023/10/26 07:56:23;;;;;;;45.08;23.98;;;;;;;;;;6278534;22;20494;-85
2023/10/26 07:58:49;;;;;;;47.08;24.25;;;;;;;;;;6251147;22;20049;-85
2023/10/26 08:01:15;;;;;;;42.38;22.63;;;;;;;;;;6223809;22;20157;-85
2023/10/26 08:03:41;;;;;;;44.50;24.77;;;;;;;;;;6277596;22;20027;-85
2023/10/26 08:06:09;;;;;;;41.75;23.00;;;;;;;;;;6249732;22;20034;-85
2023/10/26 08:08:35;;;;;;;43.95;22.75;;;;;;;;;;6224494;22;20016;-84
2023/10/26 08:11:11;;;;;;;43.42;22.30;;;;;;;;;;6249253;22;20076;-84
2023/10/26 08:13:37;;;;;;;40.17;22.60;;;;;;;;;;6224701;22;20024;-85
2023/10/26 08:16:04;;;;;;;39.97;22.50;;;;;;;;;;6249363;22;20415;-84
2023/10/26 08:18:30;;;;;;;40.22;21.38;;;;;;;;;;6249440;22;20091;-84
2023/10/26 08:20:56;;;;;;;36.55;20.88;;;;;;;;;;6223302;22;20108;-85
2023/10/26 08:23:22;;;;;;;33.28;20.35;;;;;;;;;;6224413;22;20027;-85
2023/10/26 08:25:48;;;;;;;38.15;21.20;;;;;;;;;;6277068;22;20051;-85
2023/10/26 08:28:18;;;;;;;36.67;20.70;;;;;;;;;;6224193;22;20463;-84
2023/10/26 08:30:44;;;;;;;34.97;20.30;;;;;;;;;;6275640;22;20024;-85
2023/10/26 08:33:10;;;;;;;35.85;20.42;;;;;;;;;;6224464;22;20019;-85
2023/10/26 08:35:36;;;;;;;33.55;20.58;;;;;;;;;;6224626;22;20020;-86
2023/10/26 08:38:03;;;;;;;32.63;19.83;;;;;;;;;;6223352;22;20023;-84
2023/10/26 08:40:29;;;;;;;38.97;22.02;;;;;;;;;;6248571;22;20022;-88
2023/10/26 08:42:56;;;;;;;40.15;21.98;;;;;;;;;;6224117;22;20016;-85
2023/10/26 08:45:27;;;;;;;37.30;20.80;;;;;;;;;;6224237;22;20016;-87
2023/10/26 08:47:53;;;;;;;37.80;19.98;;;;;;;;;;6225631;22;20027;-85
2023/10/26 08:50:23;;;;;;;40.85;21.40;;;;;;;;;;6224991;22;20020;-85
2023/10/26 08:52:51;;;;;;;35.75;18.98;;;;;;;;;;6249179;22;20084;-85
2023/10/26 08:55:17;;;;;;;40.08;22.20;;;;;;;;;;6249630;22;20023;-85
2023/10/26 08:57:47;;;;;;;40.40;21.60;;;;;;;;;;6276953;22;20018;-85
2023/10/26 09:00:14;;;;;;;38.67;20.98;;;;;;;;;;6277976;22;20023;-85
2023/10/26 09:02:43;;;;;;;33.53;19.70;;;;;;;;;;6250273;22;20389;-85
2023/10/26 09:05:10;;;;;;;34.28;19.52;;;;;;;;;;6276614;22;20091;-85
2023/10/26 09:07:37;;;;;;;33.47;20.50;;;;;;;;;;6276435;22;20019;-85
2023/10/26 09:10:03;;;;;;;34.15;20.45;;;;;;;;;;6249242;22;20345;-85
2023/10/26 09:12:29;;;;;;;34.55;20.02;;;;;;;;;;6249124;22;20019;-85
2023/10/26 09:14:58;;;;;;;36.58;19.60;;;;;;;;;;6249200;22;20380;-85
2023/10/26 09:17:26;;;;;;;35.47;19.80;;;;;;;;;;6249222;22;20086;-85
2023/10/26 09:19:52;;;;;;;33.58;20.65;;;;;;;;;;6249287;22;20026;-85
2023/10/26 09:22:18;;;;;;;35.28;20.45;;;;;;;;;;6224129;22;20059;-85
2023/10/26 09:24:44;;;;;;;34.40;20.27;;;;;;;;;;6249600;22;20022;-85
2023/10/26 09:27:20;;;;;;;36.33;20.38;;;;;;;;;;6224337;22;20047;-85
2023/10/26 09:29:47;;;;;;;33.40;19.77;;;;;;;;;;6249257;22;20019;-85
2023/10/26 09:32:13;;;;;;;34.33;18.83;;;;;;;;;;6276537;22;20015;-85
2023/10/26 09:34:40;;;;;;;30.63;19.08;;;;;;;;;;6223836;22;20012;-85
2023/10/26 09:37:07;;;;;;;31.90;19.20;;;;;;;;;;6224296;22;20019;-85
2023/10/26 09:39:34;;;;;;;31.23;18.50;;;;;;;;;;6276958;22;20012;-85
2023/10/26 09:42:01;;;;;;;35.03;19.38;;;;;;;;;;6223648;22;20019;-85
2023/10/26 09:44:28;;;;;;;32.42;18.52;;;;;;;;;;6248967;22;20061;-85
2023/10/26 09:46:55;;;;;;;33.47;18.70;;;;;;;;;;6223690;22;20098;-85
2023/10/26 09:49:24;;;;;;;28.17;18.50;;;;;;;;;;6276393;22;20012;-85
2023/10/26 09:51:51;;;;;;;33.17;19.67;;;;;;;;;;6249025;22;20065;-85
2023/10/26 09:54:38;;;;;;;36.38;20.20;;;;;;;;;;6248629;22;20077;-85
2023/10/26 09:57:11;;;;;;;34.53;19.58;;;;;;;;;;6248462;22;20479;-85
2023/10/26 09:59:37;;;;;;;30.67;18.98;;;;;;;;;;6248859;22;20451;-85
2023/10/26 10:02:14;;;;;;;34.88;20.27;;;;;;;;;;6249034;22;20011;-85
2023/10/26 10:04:39;;;;;;;;;;;;;;;;;;6249248;22;20020;-85
2023/10/26 10:07:06;;;;;;;33.33;19.40;;;;;;;;;;6249350;22;19937;-85
2023/10/26 10:09:32;;;;;;;34.00;20.15;;;;;;;;;;6249128;22;20016;-85
2023/10/26 10:12:05;;;;;;;36.83;20.60;;;;;;;;;;6249116;22;20023;-85
2023/10/26 10:14:51;;;;;;;34.50;19.80;;;;;;;;;;6249259;22;20016;-85
2023/10/26 10:17:20;;;;;;;33.50;19.67;;;;;;;;;;6248931;22;20098;-85
2023/10/26 10:19:47;;;;;;;33.92;20.55;;;;;;;;;;6276429;22;20046;-85
2023/10/26 10:22:31;;;;;;;31.65;19.40;;;;;;;;;;6249107;22;20062;-85
2023/10/26 10:24:57;;;;;;;29.10;19.45;;;;;;;;;;6224586;22;20051;-85
2023/10/26 10:27:24;;;;;;;30.30;18.90;;;;;;;;;;6276709;22;20023;-85
2023/10/26 10:29:50;;;;;;;33.63;20.80;;;;;;;;;;6224875;22;20061;-85
2023/10/26 10:32:39;;;;;;;31.88;19.92;;;;;;;;;;6249098;22;20023;-85
2023/10/26 10:35:07;;;;;;;34.15;21.42;;;;;;;;;;6204867;22;20019;-85
2023/10/26 10:37:33;;;;;;;33.05;20.88;;;;;;;;;;6224378;22;20015;-86
2023/10/26 10:40:15;;;;;;;35.13;20.35;;;;;;;;;;6249955;22;20026;-84
2023/10/26 10:42:45;;;;;;;33.80;21.20;;;;;;;;;;6275890;22;20452;-85
2023/10/26 10:45:12;;;;;;;32.97;20.85;;;;;;;;;;6224477;22;20506;-85
2023/10/26 10:47:39;;;;;;;33.95;21.02;;;;;;;;;;6248926;22;20022;-85
2023/10/26 10:50:14;;;;;;;32.30;20.27;;;;;;;;;;6249427;22;20090;-85
2023/10/26 10:52:44;;;;;;;33.97;20.08;;;;;;;;;;6249330;22;20058;-85
2023/10/26 10:55:10;;;;;;;35.65;21.75;;;;;;;;;;6249505;22;20043;-85
2023/10/26 10:57:51;;;;;;;34.55;20.85;;;;;;;;;;6248819;22;20015;-85
2023/10/26 11:00:17;;;;;;;33.08;20.95;;;;;;;;;;6249478;22;20089;-85
2023/10/26 11:02:49;;;;;;;32.85;19.92;;;;;;;;;;6223950;22;20065;-85
2023/10/26 11:05:16;;;;;;;31.35;19.70;;;;;;;;;;6223381;22;20024;-85
2023/10/26 11:07:42;;;;;;;30.95;19.52;;;;;;;;;;6248685;22;20400;-85
2023/10/26 11:10:08;;;;;;;34.88;21.00;;;;;;;;;;6248846;22;20016;-85
2023/10/26 11:12:35;;;;;;;34.63;20.63;;;;;;;;;;6223553;22;20011;-85
2023/10/26 11:15:01;;;;;;;36.25;21.60;;;;;;;;;;6224121;22;20019;-85
2023/10/26 11:17:28;;;;;;;36.25;21.52;;;;;;;;;;6224050;22;20091;-85
2023/10/26 11:19:54;;;;;;;36.03;22.20;;;;;;;;;;6225169;22;20470;-84
2023/10/26 11:22:21;;;;;;;35.28;20.77;;;;;;;;;;6224878;22;20043;-85
2023/10/26 11:24:47;;;;;;;35.67;21.70;;;;;;;;;;6249284;22;20024;-85
2023/10/26 11:27:15;;;;;;;38.97;22.25;;;;;;;;;;6276655;22;20016;-85
2023/10/26 11:29:42;;;;;;;33.78;21.58;;;;;;;;;;6249113;22;20024;-85
2023/10/26 11:32:29;;;;;;;37.13;22.58;;;;;;;;;;6276401;22;20091;-85
2023/10/26 11:35:08;;;;;;;38.33;23.05;;;;;;;;;;6249190;22;20340;-85
2023/10/26 11:37:35;;;;;;;37.83;23.17;;;;;;;;;;6248842;22;20015;-85
2023/10/26 11:40:02;;;;;;;39.25;23.05;;;;;;;;;;6249024;22;20073;-85
2023/10/26 11:42:47;;;;;;;38.85;22.45;;;;;;;;;;6223644;22;20016;-85
2023/10/26 11:45:15;;;;;;;38.58;22.58;;;;;;;;;;6223102;22;20448;-85
2023/10/26 11:47:48;;;;;;;38.08;22.88;;;;;;;;;;6275882;22;20022;-85
2023/10/26 11:50:21;;;;;;;39.88;21.95;;;;;;;;;;6249115;22;20012;-86
2023/10/26 11:52:47;;;;;;;39.58;22.30;;;;;;;;;;6275669;22;20142;-85
2023/10/26 11:55:17;;;;;;;38.63;22.60;;;;;;;;;;6222999;22;20153;-85
2023/10/26 11:57:43;;;;;;;37.35;22.45;;;;;;;;;;6248421;22;20404;-85
2023/10/26 12:00:10;;;;;;;39.47;23.10;;;;;;;;;;6224541;22;20035;-85
2023/10/26 12:02:36;;;;;;;34.60;21.88;;;;;;;;;;6250144;22;20062;-85
2023/10/26 12:05:05;;;;;;;34.67;20.92;;;;;;;;;;6250061;22;20015;-84
2023/10/26 12:07:31;;;;;;;34.83;19.63;;;;;;;;;;6224375;22;20024;-85
2023/10/26 12:09:57;;;;;;;36.30;22.00;;;;;;;;;;6225086;22;20012;-85
2023/10/26 12:12:24;;;;;;;29.63;19.60;;;;;;;;;;6224613;22;20042;-85
2023/10/26 12:14:50;;;;;;;26.95;17.70;;;;;;;;;;6276827;22;20086;-85
2023/10/26 12:17:16;;;;;;;31.92;19.08;;;;;;;;;;6249701;22;20027;-85
2023/10/26 12:19:42;;;;;;;30.20;19.70;;;;;;;;;;6224790;22;20020;-85
2023/10/26 12:22:08;;;;;;;30.65;19.70;;;;;;;;;;6224470;22;20025;-85
2023/10/26 12:24:35;;;;;;;30.48;19.30;;;;;;;;;;6277074;22;20026;-85
2023/10/26 12:27:02;;;;;;;31.98;19.33;;;;;;;;;;6277011;22;20069;-85
2023/10/26 12:29:29;;;;;;;30.17;18.65;;;;;;;;;;6224476;22;20024;-85
2023/10/26 12:31:57;;;;;;;30.92;18.85;;;;;;;;;;6277442;22;20463;-85
2023/10/26 12:34:23;;;;;;;34.42;20.38;;;;;;;;;;6249402;22;20065;-85
2023/10/26 12:36:49;;;;;;;32.85;19.23;;;;;;;;;;6224675;22;20027;-85
2023/10/26 12:39:15;;;;;;;30.27;18.67;;;;;;;;;;6249581;22;20020;-85
2023/10/26 12:41:41;;;;;;;29.58;18.45;;;;;;;;;;6249886;22;20020;-85
2023/10/26 12:44:07;;;;;;;27.15;17.55;;;;;;;;;;6276916;22;20436;-85
2023/10/26 12:46:33;;;;;;;26.83;17.65;;;;;;;;;;6224462;22;20016;-85
2023/10/26 12:48:59;;;;;;;29.52;18.90;;;;;;;;;;6224347;22;20012;-85
2023/10/26 12:51:25;;;;;;;25.23;17.33;;;;;;;;;;6224810;22;20023;-85
2023/10/26 12:53:51;;;;;;;29.60;18.63;;;;;;;;;;6224135;22;20020;-85
2023/10/26 12:56:17;;;;;;;28.63;18.38;;;;;;;;;;6224282;22;20020;-85
2023/10/26 12:58:43;;;;;;;27.95;18.65;;;;;;;;;;6225384;22;20137;-85
2023/10/26 13:01:10;;;;;;;27.45;17.95;;;;;;;;;;6249742;22;20023;-85
2023/10/26 13:03:36;;;;;;;29.80;18.40;;;;;;;;;;6250194;22;20016;-85
2023/10/26 13:06:02;;;;;;;31.35;18.83;;;;;;;;;;6250032;22;20018;-85
2023/10/26 13:08:28;;;;;;;25.17;18.00;;;;;;;;;;6224726;22;20091;-85
2023/10/26 13:10:54;;;;;;;26.35;17.70;;;;;;;;;;6249691;22;20054;-85
2023/10/26 13:13:20;;;;;;;28.30;18.10;;;;;;;;;;6249177;22;20345;-85
2023/10/26 13:15:46;;;;;;;31.15;19.08;;;;;;;;;;6224033;22;20440;-85
2023/10/26 13:18:12;;;;;;;28.92;18.10;;;;;;;;;;6276506;22;20015;-85
2023/10/26 13:20:38;;;;;;;25.40;18.15;;;;;;;;;;6224197;22;20510;-85
2023/10/26 13:23:04;;;;;;;26.13;16.80;;;;;;;;;;6223870;22;20030;-85
2023/10/26 13:25:30;;;;;;;29.15;17.92;;;;;;;;;;6276269;22;20444;-85
2023/10/26 13:27:59;;;;;;;26.98;16.60;;;;;;;;;;6276401;22;20012;-85
2023/10/26 13:30:26;;;;;;;27.17;17.50;;;;;;;;;;6249358;22;20448;-85
2023/10/26 13:32:52;;;;;;;26.67;17.17;;;;;;;;;;6224124;22;20345;-85
2023/10/26 13:35:18;;;;;;;26.63;16.80;;;;;;;;;;6223830;22;20031;-84
2023/10/26 13:37:44;;;;;;;26.35;17.33;;;;;;;;;;6276707;22;20018;-85
2023/10/26 13:40:10;;;;;;;26.08;17.55;;;;;;;;;;6276732;22;20015;-85
2023/10/26 13:42:36;;;;;;;27.15;17.25;;;;;;;;;;6276218;22;20012;-85
2023/10/26 13:45:03;;;;;;;26.05;16.83;;;;;;;;;;6276564;22;20015;-85
2023/10/26 13:47:29;;;;;;;26.77;17.70;;;;;;;;;;6223819;22;20023;-85
2023/10/26 13:49:55;;;;;;;26.00;17.85;;;;;;;;;;6249407;22;20022;-85
2023/10/26 13:52:21;;;;;;;26.30;17.67;;;;;;;;;;6223384;22;20444;-85
2023/10/26 13:54:48;;;;;;;28.92;19.08;;;;;;;;;;6275473;22;20020;-85
2023/10/26 13:57:14;;;;;;;26.02;18.25;;;;;;;;;;6248919;22;20019;-85
2023/10/26 13:59:41;;;;;;;26.10;18.00;;;;;;;;;;6249380;22;20022;-85
2023/10/26 14:02:07;;;;;;;30.50;17.77;;;;;;;;;;6276184;22;20475;-85
2023/10/26 14:04:34;;;;;;;26.75;17.77;;;;;;;;;;6276156;22;20088;-85
2023/10/26 14:07:00;;;;;;;27.48;17.77;;;;;;;;;;6223689;22;20020;-84
2023/10/26 14:09:27;;;;;;;27.27;18.02;;;;;;;;;;6276279;22;20020;-85
2023/10/26 14:11:53;;;;;;;29.02;18.65;;;;;;;;;;6276160;22;20020;-85
2023/10/26 14:14:19;;;;;;;28.10;17.88;;;;;;;;;;6249154;22;20026;-85